createdAt,value
2017-10-17T00:01:09.164Z,23.50
2017-10-17T00:03:37.385Z,19.00
2017-10-17T00:06:04.867Z,22.37
2017-10-17T00:11:06.163Z,21.53
2017-10-17T00:13:34.393Z,26.37
2017-10-17T00:16:01.965Z,20.97
2017-10-17T00:18:29.534Z,21.67
2017-10-17T00:20:57.011Z,20.70
2017-10-17T00:23:25.253Z,19.40
2017-10-17T00:25:52.848Z,20.43
2017-10-17T00:28:21.093Z,17.80
2017-10-17T00:30:49.226Z,21.70
2017-10-17T00:33:20.500Z,26.27
2017-10-17T00:35:51.398Z,26.23
2017-10-17T00:38:18.890Z,25.80
2017-10-17T00:40:46.362Z,22.20
2017-10-17T00:43:14.478Z,22.93
2017-10-17T00:45:41.959Z,21.43
2017-10-17T00:48:09.435Z,28.57
2017-10-17T00:50:38.687Z,18.33
2017-10-17T00:53:06.589Z,25.80
2017-10-17T00:55:34.134Z,23.90
2017-10-17T00:58:01.601Z,24.80
2017-10-17T01:00:29.085Z,21.13
2017-10-17T01:02:58.075Z,18.90
2017-10-17T01:05:27.079Z,21.87
2017-10-17T01:07:54.544Z,21.37
2017-10-17T01:10:22.797Z,20.80
2017-10-17T01:12:50.394Z,22.20
2017-10-17T01:15:18.635Z,21.10
2017-10-17T01:17:46.238Z,22.13
2017-10-17T01:20:18.390Z,23.17
2017-10-17T01:22:46.671Z,19.40
2017-10-17T01:25:14.911Z,21.37
2017-10-17T01:27:42.385Z,20.73
2017-10-17T01:30:09.960Z,18.30
2017-10-17T01:32:38.192Z,26.20
2017-10-17T01:35:05.681Z,23.27
2017-10-17T01:37:33.929Z,16.30
2017-10-17T01:40:04.098Z,20.03
2017-10-17T01:42:31.600Z,21.57
2017-10-17T01:45:03.419Z,20.97
2017-10-17T01:47:30.939Z,19.23
2017-10-17T01:49:59.787Z,20.57
2017-10-17T01:52:27.984Z,19.20
2017-10-17T01:54:56.212Z,23.60
2017-10-17T01:57:23.736Z,19.43
2017-10-17T02:00:07.069Z,22.77
2017-10-17T02:02:39.215Z,21.03
2017-10-17T02:05:06.690Z,21.03
2017-10-17T02:07:35.013Z,21.70
2017-10-17T02:10:04.904Z,22.97
2017-10-17T02:12:32.394Z,19.07
2017-10-17T02:14:59.876Z,23.93
2017-10-17T02:17:28.070Z,19.40
2017-10-17T02:19:55.633Z,25.00
2017-10-17T02:22:28.620Z,24.17
2017-10-17T02:24:57.650Z,23.67
2017-10-17T02:27:25.156Z,30.17
2017-10-17T02:29:57.333Z,26.63
2017-10-17T02:32:25.591Z,22.23
2017-10-17T02:35:08.732Z,18.07
2017-10-17T02:37:36.219Z,24.30
2017-10-17T02:40:03.690Z,18.80
2017-10-17T02:42:31.154Z,23.20
2017-10-17T02:44:58.647Z,21.70
2017-10-17T02:47:26.754Z,22.00
2017-10-17T02:49:55.923Z,19.10
2017-10-17T02:52:27.971Z,22.17
2017-10-17T02:54:55.455Z,23.43
2017-10-17T02:57:23.702Z,23.60
2017-10-17T02:59:51.977Z,22.10
2017-10-17T03:02:47.852Z,21.57
2017-10-17T03:05:19.050Z,22.13
2017-10-17T03:07:50.031Z,23.43
2017-10-17T03:10:17.634Z,21.93
2017-10-17T03:12:45.110Z,22.83
2017-10-17T03:15:12.685Z,29.57
2017-10-17T03:17:40.169Z,23.90
2017-10-17T03:20:07.723Z,21.60
2017-10-17T03:22:35.250Z,20.53
2017-10-17T03:25:07.319Z,19.90
2017-10-17T03:27:34.801Z,22.23
2017-10-17T03:30:02.296Z,17.47
2017-10-17T03:32:29.772Z,20.47
2017-10-17T03:35:18.735Z,22.13
2017-10-17T03:37:56.879Z,22.10
2017-10-17T03:43:38.139Z,25.03
2017-10-17T03:46:05.818Z,25.30
2017-10-17T03:48:33.313Z,22.63
2017-10-17T03:51:12.385Z,21.50
2017-10-17T03:53:44.568Z,25.73
2017-10-17T03:56:27.700Z,25.03
2017-10-17T03:59:06.396Z,19.63
2017-10-17T04:01:33.882Z,18.07
2017-10-17T04:04:18.835Z,23.40
2017-10-17T04:06:52.126Z,21.43
2017-10-17T04:09:20.472Z,19.43
2017-10-17T04:11:47.955Z,21.87
2017-10-17T04:17:36.398Z,21.80
2017-10-17T04:20:26.523Z,23.80
2017-10-17T04:23:10.563Z,24.73
2017-10-17T04:29:02.103Z,19.10
2017-10-17T04:31:38.320Z,18.87
2017-10-17T04:34:10.389Z,30.53
2017-10-17T04:36:51.623Z,26.67
2017-10-17T04:39:19.941Z,18.10
2017-10-17T04:41:56.077Z,23.37
2017-10-17T04:47:42.449Z,21.90
2017-10-17T04:50:31.728Z,21.10
2017-10-17T04:56:07.486Z,19.83
2017-10-17T04:58:40.902Z,21.40
2017-10-17T05:01:08.449Z,23.83
2017-10-17T05:06:31.274Z,17.70
2017-10-17T05:09:12.199Z,21.23
2017-10-17T05:11:39.774Z,20.70
2017-10-17T05:14:27.380Z,16.07
2017-10-17T05:17:01.497Z,17.83
2017-10-17T05:22:32.150Z,20.33
2017-10-17T05:25:07.183Z,21.33
2017-10-17T05:27:46.773Z,23.30
2017-10-17T05:30:20.020Z,19.37
2017-10-17T05:32:48.306Z,22.80
2017-10-17T05:35:26.443Z,30.90
2017-10-17T05:37:53.942Z,23.30
2017-10-17T05:40:21.423Z,20.57
2017-10-17T05:42:49.740Z,24.50
2017-10-17T05:45:18.926Z,20.00
2017-10-17T05:47:52.190Z,20.00
2017-10-17T05:50:22.410Z,27.40
2017-10-17T05:52:50.645Z,22.40
2017-10-17T05:55:18.123Z,23.07
2017-10-17T05:57:45.677Z,21.33
2017-10-17T06:00:13.150Z,19.10
2017-10-17T06:02:40.635Z,21.07
2017-10-17T06:05:08.152Z,24.03
2017-10-17T06:07:35.632Z,23.90
2017-10-17T06:10:03.924Z,19.00
2017-10-17T06:12:31.418Z,18.53
2017-10-17T06:14:58.898Z,25.93
2017-10-17T06:17:26.379Z,22.87
2017-10-17T06:19:54.642Z,21.20
2017-10-17T06:22:22.147Z,20.93
2017-10-17T06:24:49.743Z,26.97
2017-10-17T06:27:17.274Z,19.20
2017-10-17T06:29:44.767Z,23.37
2017-10-17T06:32:12.282Z,20.40
2017-10-17T06:34:39.787Z,21.30
2017-10-17T06:37:07.257Z,23.50
2017-10-17T06:39:34.800Z,20.13
2017-10-17T06:42:02.589Z,24.30
2017-10-17T06:44:30.834Z,23.07
2017-10-17T06:46:58.400Z,25.07
2017-10-17T06:49:25.909Z,20.23
2017-10-17T06:51:53.485Z,21.60
2017-10-17T06:54:20.969Z,22.87
2017-10-17T06:56:48.483Z,25.50
2017-10-17T06:59:15.961Z,23.23
2017-10-17T07:01:43.438Z,19.60
2017-10-17T07:04:11.046Z,27.83
2017-10-17T07:06:38.562Z,28.40
2017-10-17T07:09:06.098Z,29.33
2017-10-17T07:11:33.626Z,27.53
2017-10-17T07:14:01.139Z,26.83
2017-10-17T07:16:28.622Z,29.90
2017-10-17T07:18:56.883Z,21.80
2017-10-17T07:21:25.141Z,21.40
2017-10-17T07:23:52.606Z,22.67
2017-10-17T07:26:20.082Z,24.60
2017-10-17T07:28:48.332Z,21.80
2017-10-17T07:31:16.612Z,25.30
2017-10-17T07:33:44.086Z,24.63
2017-10-17T07:36:12.385Z,21.63
2017-10-17T07:38:39.867Z,21.33
2017-10-17T07:41:07.354Z,21.93
2017-10-17T07:43:34.834Z,21.17
2017-10-17T07:46:03.093Z,21.37
2017-10-17T07:48:31.419Z,20.27
2017-10-17T07:50:58.898Z,23.50
2017-10-17T07:53:26.397Z,22.97
2017-10-17T07:55:54.650Z,18.43
2017-10-17T07:58:22.138Z,24.70
2017-10-17T08:00:50.383Z,23.27
2017-10-17T08:05:52.466Z,23.20
2017-10-17T08:08:21.458Z,22.40
2017-10-17T08:10:48.961Z,27.17
2017-10-17T08:13:16.487Z,22.50
2017-10-17T08:15:44.730Z,26.17
2017-10-17T08:18:12.219Z,20.73
2017-10-17T08:20:40.556Z,19.80
2017-10-17T08:23:08.035Z,18.20
2017-10-17T08:25:35.510Z,17.47
2017-10-17T08:28:03.751Z,17.80
2017-10-17T08:30:31.248Z,20.27
2017-10-17T08:32:59.485Z,20.23
2017-10-17T08:35:26.970Z,16.30
2017-10-17T08:37:54.540Z,15.57
2017-10-17T08:40:22.796Z,18.77
2017-10-17T08:42:50.270Z,26.13
2017-10-17T08:45:18.506Z,42.67
2017-10-17T08:47:45.989Z,34.23
2017-10-17T08:50:13.457Z,18.33
2017-10-17T08:52:41.695Z,18.97
2017-10-17T08:55:09.191Z,17.23
2017-10-17T08:57:37.429Z,21.87
2017-10-17T09:00:04.922Z,19.20
2017-10-17T09:02:33.163Z,15.80
2017-10-17T09:05:00.690Z,16.63
2017-10-17T09:07:28.250Z,13.83
2017-10-17T09:09:56.131Z,14.00
2017-10-17T09:12:23.626Z,20.80
2017-10-17T09:14:51.876Z,15.90
2017-10-17T09:17:19.352Z,11.67
2017-10-17T09:19:46.816Z,16.90
2017-10-17T09:22:15.061Z,14.87
2017-10-17T09:24:42.579Z,13.27
2017-10-17T09:27:10.058Z,14.33
2017-10-17T09:29:37.563Z,21.57
2017-10-17T09:32:05.834Z,16.33
2017-10-17T09:34:33.288Z,20.47
2017-10-17T09:37:00.767Z,13.07
2017-10-17T09:39:29.007Z,13.10
2017-10-17T09:41:56.506Z,17.33
2017-10-17T09:44:24.025Z,15.83
2017-10-17T09:46:51.482Z,17.00
2017-10-17T09:49:18.963Z,15.80
2017-10-17T09:51:47.226Z,13.00
2017-10-17T09:54:14.698Z,21.50
2017-10-17T09:56:42.928Z,13.73
2017-10-17T09:59:10.395Z,14.40
2017-10-17T10:01:37.885Z,15.37
2017-10-17T10:04:06.150Z,25.07
2017-10-17T10:06:34.402Z,14.03
2017-10-17T10:09:02.008Z,24.30
2017-10-17T10:11:29.486Z,13.17
2017-10-17T10:13:57.049Z,22.10
2017-10-17T10:16:24.566Z,12.27
2017-10-17T10:18:52.838Z,15.40
2017-10-17T10:21:21.111Z,12.77
2017-10-17T10:23:48.833Z,13.00
2017-10-17T10:26:16.309Z,15.77
2017-10-17T10:28:43.787Z,14.67
2017-10-17T10:31:11.345Z,13.03
2017-10-17T10:33:38.804Z,14.00
2017-10-17T10:36:07.807Z,22.40
2017-10-17T10:38:36.069Z,16.13
2017-10-17T10:41:03.536Z,11.03
2017-10-17T10:43:31.786Z,12.73
2017-10-17T10:45:59.257Z,15.60
2017-10-17T10:48:27.509Z,20.43
2017-10-17T10:50:54.991Z,16.00
2017-10-17T10:53:22.519Z,21.37
2017-10-17T10:55:50.005Z,9.50
2017-10-17T10:58:18.250Z,15.40
2017-10-17T11:00:45.951Z,12.20
2017-10-17T11:03:14.247Z,19.80
2017-10-17T11:05:41.723Z,16.67
2017-10-17T11:08:09.201Z,14.13
2017-10-17T11:10:36.682Z,11.37
2017-10-17T11:13:04.166Z,11.90
2017-10-17T11:15:32.406Z,14.43
2017-10-17T11:17:59.893Z,12.33
2017-10-17T11:20:28.133Z,14.00
2017-10-17T11:22:55.616Z,11.50
2017-10-17T11:25:23.145Z,9.80
2017-10-17T11:27:50.626Z,14.43
2017-10-17T11:30:18.086Z,10.27
2017-10-17T11:32:46.480Z,16.90
2017-10-17T11:35:14.739Z,19.17
2017-10-17T11:37:42.202Z,13.63
2017-10-17T11:40:10.487Z,11.90
2017-10-17T11:42:50.802Z,13.13
2017-10-17T11:45:18.345Z,10.90
2017-10-17T11:47:45.897Z,16.27
2017-10-17T11:50:13.765Z,15.90
2017-10-17T11:52:41.271Z,10.87
2017-10-17T11:55:08.747Z,14.30
2017-10-17T11:57:37.007Z,13.00
2017-10-17T12:00:05.282Z,14.67
2017-10-17T12:02:33.546Z,14.30
2017-10-17T12:05:01.783Z,13.80
2017-10-17T12:07:29.286Z,16.33
2017-10-17T12:09:57.321Z,15.20
2017-10-17T12:12:26.297Z,13.43
2017-10-17T12:14:53.819Z,15.93
2017-10-17T12:17:22.210Z,12.23
2017-10-17T12:19:49.700Z,15.53
2017-10-17T12:22:17.177Z,15.27
2017-10-17T12:24:44.648Z,12.60
2017-10-17T12:27:12.119Z,12.63
2017-10-17T12:29:40.858Z,21.63
2017-10-17T12:32:09.843Z,12.30
2017-10-17T12:34:38.628Z,14.07
2017-10-17T12:37:07.571Z,16.50
2017-10-17T12:39:35.101Z,15.37
2017-10-17T12:42:02.586Z,17.33
2017-10-17T12:44:30.821Z,15.17
2017-10-17T12:46:58.364Z,16.57
2017-10-17T12:49:25.830Z,20.20
2017-10-17T12:51:53.320Z,14.03
2017-10-17T12:54:20.794Z,17.93
2017-10-17T12:56:48.309Z,15.23
2017-10-17T12:59:15.766Z,18.40
2017-10-17T13:01:43.238Z,15.73
2017-10-17T13:04:10.720Z,16.93
2017-10-17T13:06:38.221Z,14.57
2017-10-17T13:09:05.688Z,13.20
2017-10-17T13:11:33.164Z,19.23
2017-10-17T13:14:00.655Z,14.90
2017-10-17T13:16:28.900Z,14.03
2017-10-17T13:18:56.485Z,19.10
2017-10-17T13:21:24.742Z,13.00
2017-10-17T13:23:52.223Z,19.23
2017-10-17T13:26:19.701Z,17.90
2017-10-17T13:28:47.234Z,18.47
2017-10-17T13:31:15.464Z,21.60
2017-10-17T13:33:42.965Z,19.00
2017-10-17T13:36:11.242Z,12.30
2017-10-17T13:38:39.469Z,15.70
2017-10-17T13:41:06.957Z,18.57
2017-10-17T13:43:34.434Z,16.13
2017-10-17T13:46:02.717Z,19.70
2017-10-17T13:48:30.991Z,19.10
2017-10-17T13:50:59.228Z,15.20
2017-10-17T13:53:26.719Z,15.43
2017-10-17T13:55:54.965Z,14.93
2017-10-17T13:58:22.446Z,13.50
2017-10-17T14:00:50.699Z,21.90
2017-10-17T14:03:18.278Z,25.77
2017-10-17T14:05:46.541Z,11.20
2017-10-17T14:08:14.089Z,14.57
2017-10-17T14:10:41.598Z,19.87
2017-10-17T14:13:09.059Z,18.97
2017-10-17T14:15:36.537Z,17.30
2017-10-17T14:18:04.026Z,21.97
2017-10-17T14:20:31.589Z,15.60
2017-10-17T14:22:59.068Z,19.87
2017-10-17T14:25:27.389Z,18.87
2017-10-17T14:27:54.870Z,15.00
2017-10-17T14:30:22.337Z,20.57
2017-10-17T14:32:49.950Z,18.17
2017-10-17T14:35:17.446Z,22.73
2017-10-17T14:37:44.972Z,20.47
2017-10-17T14:40:12.537Z,22.37
2017-10-17T14:42:40.033Z,12.87
2017-10-17T14:45:07.502Z,20.00
2017-10-17T14:47:35.778Z,14.07
2017-10-17T14:50:04.012Z,27.27
2017-10-17T14:52:31.486Z,18.10
2017-10-17T14:54:58.971Z,20.87
2017-10-17T14:57:27.242Z,19.60
2017-10-17T14:59:55.515Z,17.10
2017-10-17T15:02:23.746Z,22.23
2017-10-17T15:04:51.223Z,15.80
2017-10-17T15:07:18.710Z,19.60
2017-10-17T15:09:46.979Z,20.07
2017-10-17T15:12:15.223Z,15.30
2017-10-17T15:14:42.711Z,14.27
2017-10-17T15:17:10.962Z,17.40
2017-10-17T15:19:38.576Z,15.60
2017-10-17T15:22:06.047Z,21.23
2017-10-17T15:24:33.526Z,24.97
2017-10-17T15:27:00.994Z,14.27
2017-10-17T15:29:29.993Z,16.30
2017-10-17T15:31:57.470Z,14.97
2017-10-17T15:34:24.948Z,12.90
2017-10-17T15:36:52.434Z,21.23
2017-10-17T15:39:19.907Z,16.53
2017-10-17T15:41:47.402Z,13.43
2017-10-17T15:44:14.933Z,15.07
2017-10-17T15:46:42.399Z,14.70
2017-10-17T15:49:10.668Z,23.70
2017-10-17T15:51:38.146Z,24.13
2017-10-17T15:54:05.623Z,17.53
2017-10-17T15:56:33.102Z,26.60
2017-10-17T15:59:00.570Z,27.63
2017-10-17T16:01:28.057Z,20.40
2017-10-17T16:03:55.542Z,21.73
2017-10-17T16:06:23.061Z,19.40
2017-10-17T16:08:50.641Z,27.17
2017-10-17T16:11:18.950Z,16.70
2017-10-17T16:13:46.459Z,17.67
2017-10-17T16:16:13.965Z,21.70
2017-10-17T16:18:41.446Z,20.97
2017-10-17T16:21:08.934Z,18.70
2017-10-17T16:23:36.415Z,25.27
2017-10-17T16:26:03.895Z,24.83
2017-10-17T16:28:31.402Z,19.50
2017-10-17T16:30:58.907Z,21.43
2017-10-17T16:33:26.383Z,16.33
2017-10-17T16:35:53.905Z,21.33
2017-10-17T16:38:21.398Z,22.43
2017-10-17T16:40:48.918Z,22.33
2017-10-17T16:43:16.418Z,19.77
2017-10-17T16:45:43.919Z,18.47
2017-10-17T16:48:12.166Z,26.90
2017-10-17T16:50:39.746Z,24.00
2017-10-17T16:53:07.880Z,27.60
2017-10-17T16:55:35.420Z,20.80
2017-10-17T16:58:02.913Z,25.23
2017-10-17T17:00:30.386Z,19.63
2017-10-17T17:02:57.873Z,28.33
2017-10-17T17:05:25.342Z,19.47
2017-10-17T17:07:52.810Z,21.67
2017-10-17T17:10:20.463Z,28.83
2017-10-17T17:12:47.942Z,26.00
2017-10-17T17:15:15.424Z,27.47
2017-10-17T17:17:42.904Z,24.77
2017-10-17T17:20:11.167Z,28.83
2017-10-17T17:22:38.688Z,27.93
2017-10-17T17:25:06.198Z,25.37
2017-10-17T17:27:34.466Z,33.00
2017-10-17T17:30:01.949Z,24.10
2017-10-17T17:32:29.528Z,30.43
2017-10-17T17:34:57.011Z,28.97
2017-10-17T17:37:24.521Z,23.70
2017-10-17T17:39:52.053Z,28.97
2017-10-17T17:42:20.414Z,23.60
2017-10-17T17:44:48.706Z,32.50
2017-10-17T17:47:18.390Z,29.87
2017-10-17T17:49:45.858Z,27.53
2017-10-17T17:52:13.347Z,28.00
2017-10-17T17:54:41.591Z,26.27
2017-10-17T17:57:09.157Z,31.77
2017-10-17T17:59:36.635Z,29.50
2017-10-17T18:02:04.898Z,32.73
2017-10-17T18:04:32.372Z,32.97
2017-10-17T18:07:00.665Z,30.63
2017-10-17T18:09:28.187Z,33.13
2017-10-17T18:11:56.424Z,25.20
2017-10-17T18:14:23.885Z,31.00
2017-10-17T18:16:51.622Z,28.60
2017-10-17T18:19:19.130Z,28.90
2017-10-17T18:21:46.611Z,30.13
2017-10-17T18:24:14.970Z,28.30
2017-10-17T18:26:43.192Z,30.70
2017-10-17T18:29:10.693Z,28.17
2017-10-17T18:31:39.675Z,23.83
2017-10-17T18:34:07.268Z,29.07
2017-10-17T18:36:35.564Z,32.37
2017-10-17T18:39:03.030Z,29.73
2017-10-17T18:41:30.632Z,31.23
2017-10-17T18:43:58.138Z,26.67
2017-10-17T18:46:25.627Z,34.23
2017-10-17T18:48:53.157Z,29.10
2017-10-17T18:51:20.629Z,30.10
2017-10-17T18:53:48.118Z,24.57
2017-10-17T18:56:15.601Z,29.43
2017-10-17T18:58:43.837Z,26.40
2017-10-17T19:01:11.350Z,31.90
2017-10-17T19:03:38.923Z,39.17
2017-10-17T19:06:06.414Z,33.23
2017-10-17T19:08:33.918Z,32.37
2017-10-17T19:11:02.163Z,30.90
2017-10-17T19:13:30.412Z,32.10
2017-10-17T19:15:57.909Z,30.80
2017-10-17T19:18:26.284Z,34.43
2017-10-17T19:20:53.847Z,33.13
2017-10-17T19:23:22.084Z,35.23
2017-10-17T19:25:50.256Z,28.73
2017-10-17T19:28:17.747Z,25.90
2017-10-17T19:30:45.997Z,29.10
2017-10-17T19:33:13.464Z,31.30
2017-10-17T19:35:42.462Z,29.47
2017-10-17T19:38:10.791Z,34.00
2017-10-17T19:40:38.259Z,27.93
2017-10-17T19:43:05.742Z,34.60
2017-10-17T19:45:35.450Z,26.67
2017-10-17T19:48:02.931Z,32.70
2017-10-17T19:50:31.177Z,28.83
2017-10-17T19:52:58.653Z,32.40
2017-10-17T19:55:26.127Z,37.07
2017-10-17T19:57:54.381Z,33.60
2017-10-17T20:00:21.871Z,34.90
2017-10-17T20:02:49.330Z,30.33
2017-10-17T20:05:16.810Z,33.47
2017-10-17T20:07:46.165Z,33.33
2017-10-17T20:10:13.826Z,31.60
2017-10-17T20:12:42.090Z,32.97
2017-10-17T20:15:09.586Z,36.80
2017-10-17T20:17:37.102Z,36.33
2017-10-17T20:20:06.083Z,38.00
2017-10-17T20:22:33.566Z,35.37
2017-10-17T20:25:01.813Z,35.73
2017-10-17T20:27:29.298Z,38.50
2017-10-17T20:29:57.550Z,38.60
2017-10-17T20:32:25.040Z,29.10
2017-10-17T20:34:53.293Z,33.67
2017-10-17T20:37:20.770Z,30.70
2017-10-17T20:39:49.074Z,39.73
2017-10-17T20:42:16.565Z,31.23
2017-10-17T20:44:44.050Z,40.77
2017-10-17T20:47:12.280Z,41.47
2017-10-17T20:49:39.739Z,29.93
2017-10-17T20:52:07.250Z,35.33
2017-10-17T20:54:35.506Z,36.80
2017-10-17T20:57:03.757Z,35.77
2017-10-17T20:59:31.230Z,36.17
2017-10-17T21:01:58.736Z,35.03
2017-10-17T21:04:26.266Z,35.20
2017-10-17T21:06:54.507Z,38.17
2017-10-17T21:09:21.969Z,36.83
2017-10-17T21:11:49.443Z,44.63
2017-10-17T21:14:16.913Z,38.13
2017-10-17T21:16:45.159Z,34.67
2017-10-17T21:19:12.723Z,36.47
2017-10-17T21:21:40.211Z,36.57
2017-10-17T21:24:08.512Z,33.50
2017-10-17T21:26:35.976Z,40.77
2017-10-17T21:29:03.467Z,38.80
2017-10-17T21:31:30.957Z,37.57
2017-10-17T21:33:59.194Z,36.33
2017-10-17T21:36:26.707Z,35.00
2017-10-17T21:38:54.182Z,38.13
2017-10-17T21:41:21.674Z,36.67
2017-10-17T21:43:49.804Z,33.63
2017-10-17T21:46:17.334Z,45.03
2017-10-17T21:48:45.579Z,37.53
2017-10-17T21:51:13.065Z,37.43
2017-10-17T21:53:41.287Z,34.80
2017-10-17T21:56:08.769Z,36.20
2017-10-17T21:58:36.315Z,30.73
2017-10-17T22:01:03.885Z,33.80
2017-10-17T22:03:32.270Z,32.50
2017-10-17T22:05:59.848Z,34.00
2017-10-17T22:08:28.093Z,30.90
2017-10-17T22:10:57.721Z,36.57
2017-10-17T22:13:26.014Z,31.60
2017-10-17T22:15:53.489Z,37.70
2017-10-17T22:18:21.002Z,35.57
2017-10-17T22:20:48.483Z,38.00
2017-10-17T22:23:16.728Z,31.63
2017-10-17T22:25:44.208Z,32.00
2017-10-17T22:28:12.453Z,36.50
2017-10-17T22:30:40.017Z,31.83
2017-10-17T22:33:08.169Z,32.07
2017-10-17T22:35:35.630Z,32.20
2017-10-17T22:38:03.209Z,32.67
2017-10-17T22:40:30.764Z,39.13
2017-10-17T22:42:58.229Z,33.80
2017-10-17T22:45:25.789Z,32.70
2017-10-17T22:47:54.058Z,32.83
2017-10-17T22:50:21.671Z,31.93
2017-10-17T22:52:49.141Z,40.50
2017-10-17T22:55:16.634Z,35.13
2017-10-17T22:57:44.145Z,33.10
2017-10-17T23:00:11.650Z,40.90
2017-10-17T23:02:39.182Z,38.23
2017-10-17T23:05:06.772Z,41.20
2017-10-17T23:07:34.247Z,34.00
2017-10-17T23:10:02.502Z,38.73
2017-10-17T23:12:29.986Z,39.27
2017-10-17T23:14:57.463Z,36.80
2017-10-17T23:17:36.970Z,32.83
2017-10-17T23:20:16.976Z,36.43
2017-10-17T23:22:44.460Z,40.93
2017-10-17T23:25:11.934Z,32.40
2017-10-17T23:27:40.180Z,36.57
2017-10-17T23:30:07.658Z,33.33
2017-10-17T23:32:35.892Z,32.17
2017-10-17T23:35:03.373Z,33.80
2017-10-17T23:37:31.610Z,41.90
2017-10-17T23:39:59.077Z,37.13
2017-10-17T23:42:26.568Z,31.50
2017-10-17T23:44:55.075Z,34.80
2017-10-17T23:47:22.628Z,32.27
2017-10-17T23:49:50.912Z,38.70
2017-10-17T23:52:19.162Z,35.57
2017-10-17T23:54:46.646Z,32.07
2017-10-17T23:57:14.124Z,35.20
2017-10-17T23:59:41.583Z,35.70
